Time,TemperatureF,DewpointF,PressureIn,WindDirection,WindDirectionDegrees,WindSpeedMPH,WindSpeedGustMPH,Humidity,HourlyPrecipIn,Conditions,Clouds,dailyrainin,SoftwareType,DateUTC
2013-04-02 01:12:00,33.0,12.0,-100.00,NW,315,2.0,14.0,40,-99.99,,,-99.99,,2013-04-02 05:12:00,
2013-04-02 01:22:00,32.0,12.0,-100.00,SW,235,2.0,7.0,42,-99.99,,,-99.99,,2013-04-02 05:22:00,
2013-04-02 01:32:00,33.0,12.0,-100.00,WNW,295,3.0,15.0,42,-99.99,,,-99.99,,2013-04-02 05:32:00,
2013-04-02 01:43:00,33.0,12.0,-100.00,SW,235,6.0,13.0,42,-99.99,,,-99.99,,2013-04-02 05:43:00,
2013-04-02 01:52:00,32.0,12.0,-100.00,SW,235,5.0,9.0,43,-99.99,,,-99.99,,2013-04-02 05:52:00,
2013-04-02 02:02:00,31.0,13.0,-100.00,WSW,250,5.0,10.0,45,-99.99,,,-99.99,,2013-04-02 06:02:00,
2013-04-02 02:12:00,32.0,12.0,-100.00,WSW,250,6.0,14.0,43,-99.99,,,-99.99,,2013-04-02 06:12:00,
2013-04-02 02:22:00,32.0,12.0,-100.00,West,265,7.0,17.0,43,-99.99,,,-99.99,,2013-04-02 06:22:00,
2013-04-02 02:32:00,32.0,12.0,-100.00,West,270,5.0,13.0,43,-99.99,,,-99.99,,2013-04-02 06:32:00,
2013-04-02 02:42:00,31.0,12.0,-100.00,WSW,250,3.0,7.0,44,-99.99,,,-99.99,,2013-04-02 06:42:00,
2013-04-02 02:52:00,31.0,12.0,-100.00,WSW,250,3.0,7.0,44,-99.99,,,-99.99,,2013-04-02 06:52:00,
2013-04-02 03:00:00,31.0,16.0,-100.00,SW,220,1.0,-999.0,54,-99.99,,,-99.99,,2013-04-02 07:00:00,
2013-04-02 03:02:00,31.0,12.0,-100.00,WSW,255,3.0,7.0,46,-99.99,,,-99.99,,2013-04-02 07:02:00,
2013-04-02 03:13:00,29.0,13.0,-100.00,WSW,255,1.0,6.0,49,-99.99,,,-99.99,,2013-04-02 07:13:00,
2013-04-02 03:22:00,28.0,13.0,-100.00,SW,235,1.0,2.0,54,-99.99,,,-99.99,,2013-04-02 07:22:00,
2013-04-02 03:32:00,28.0,13.0,-100.00,SW,235,1.0,2.0,54,-99.99,,,-99.99,,2013-04-02 07:32:00,
2013-04-02 03:43:00,31.0,16.0,-100.00,SW,220,1.0,-999.0,54,-99.99,,,-99.99,,2013-04-02 07:43:00,
2013-04-02 03:52:00,31.0,16.0,-100.00,SW,220,1.0,-999.0,54,-99.99,,,-99.99,,2013-04-02 07:52:00,
2013-04-02 05:02:00,27.0,14.0,-100.00,SSW,210,1.0,3.0,57,-99.99,,,-99.99,,2013-04-02 09:02:00,
2013-04-02 05:13:00,28.0,14.0,-100.00,West,270,5.0,8.0,55,-99.99,,,-99.99,,2013-04-02 09:13:00,
2013-04-02 05:20:00,29.0,10.0,-100.00,WSW,250,3.0,13.0,43,-99.99,,,-99.99,,2013-04-02 09:20:00,
2013-04-02 05:22:00,29.0,12.0,-100.00,West,270,6.0,12.0,49,-99.99,,,-99.99,,2013-04-02 09:22:00,
2013-04-02 05:33:00,29.0,11.0,-100.00,West,270,3.0,9.0,47,-99.99,,,-99.99,,2013-04-02 09:33:00,
2013-04-02 05:43:00,29.0,10.0,-100.00,SW,235,2.0,9.0,44,-99.99,,,-99.99,,2013-04-02 09:43:00,
2013-04-02 05:52:00,29.0,10.0,-100.00,WSW,245,3.0,9.0,46,-99.99,,,-99.99,,2013-04-02 09:52:00,
2013-04-02 06:03:00,29.0,10.0,-100.00,WSW,250,3.0,13.0,43,-99.99,,,-99.99,,2013-04-02 10:03:00,
2013-04-02 06:13:00,29.0,10.0,-100.00,WSW,250,3.0,13.0,43,-99.99,,,-99.99,,2013-04-02 10:13:00,
2013-04-02 07:12:00,28.0,11.0,-100.00,SW,235,3.0,8.0,47,-99.99,,,-99.99,,2013-04-02 11:12:00,
2013-04-02 07:23:00,28.0,11.0,-100.00,SW,230,3.0,9.0,48,-99.99,,,-99.99,,2013-04-02 11:23:00,
2013-04-02 07:33:00,29.0,11.0,-100.00,WSW,240,7.0,9.0,47,-99.99,,,-99.99,,2013-04-02 11:33:00,
2013-04-02 07:43:00,29.0,12.0,-100.00,SW,235,5.0,12.0,48,-99.99,,,-99.99,,2013-04-02 11:43:00,
2013-04-02 07:52:00,30.0,12.0,-100.00,WSW,240,7.0,15.0,47,-99.99,,,-99.99,,2013-04-02 11:52:00,
2013-04-02 08:02:00,30.0,12.0,-100.00,SW,225,9.0,17.0,47,-99.99,,,-99.99,,2013-04-02 12:02:00,
2013-04-02 08:12:00,30.0,12.0,-100.00,SW,230,9.0,16.0,47,-99.99,,,-99.99,,2013-04-02 12:12:00,
2013-04-02 08:23:00,31.0,12.0,-100.00,WSW,250,7.0,14.0,46,-99.99,,,-99.99,,2013-04-02 12:23:00,
2013-04-02 08:32:00,31.0,12.0,-100.00,WSW,250,7.0,14.0,46,-99.99,,,-99.99,,2013-04-02 12:32:00,
2013-04-02 08:42:00,31.0,12.0,-100.00,SW,230,7.0,16.0,44,-99.99,,,-99.99,,2013-04-02 12:42:00,
2013-04-02 08:53:00,32.0,12.0,-100.00,WSW,250,13.0,20.0,43,-99.99,,,-99.99,,2013-04-02 12:53:00,
2013-04-02 09:02:00,32.0,12.0,-100.00,WSW,240,9.0,20.0,42,-99.99,,,-99.99,,2013-04-02 13:02:00,
2013-04-02 09:12:00,32.0,12.0,-100.00,WSW,240,9.0,20.0,42,-99.99,,,-99.99,,2013-04-02 13:12:00,
2013-04-02 09:23:00,33.0,10.0,-100.00,SW,230,13.0,24.0,38,-99.99,,,-99.99,,2013-04-02 13:23:00,
2013-04-02 09:33:00,33.0,10.0,-100.00,WSW,240,12.0,24.0,38,-99.99,,,-99.99,,2013-04-02 13:33:00,
2013-04-02 09:42:00,34.0,10.0,-100.00,West,260,7.0,20.0,36,-99.99,,,-99.99,,2013-04-02 13:42:00,
2013-04-02 09:52:00,34.0,10.0,-100.00,WSW,240,16.0,30.0,36,-99.99,,,-99.99,,2013-04-02 13:52:00,
2013-04-02 10:02:00,34.0,10.0,-100.00,SW,235,8.0,22.0,36,-99.99,,,-99.99,,2013-04-02 14:02:00,
2013-04-02 10:13:00,34.0,10.0,-100.00,SW,235,8.0,22.0,36,-99.99,,,-99.99,,2013-04-02 14:13:00,
2013-04-02 10:23:00,34.0,7.0,-100.00,WSW,250,14.0,32.0,32,-99.99,,,-99.99,,2013-04-02 14:23:00,
2013-04-02 10:33:00,35.0,8.0,-100.00,West,260,9.0,24.0,32,-99.99,,,-99.99,,2013-04-02 14:33:00,
2013-04-02 10:42:00,35.0,8.0,-100.00,SW,235,14.0,30.0,31,-99.99,,,-99.99,,2013-04-02 14:42:00,
2013-04-02 10:52:00,36.0,7.0,-100.00,West,265,12.0,28.0,30,-99.99,,,-99.99,,2013-04-02 14:52:00,
2013-04-02 11:02:00,36.0,8.0,-100.00,West,260,14.0,25.0,31,-99.99,,,-99.99,,2013-04-02 15:02:00,
2013-04-02 11:10:00,36.0,7.0,-100.00,WSW,250,15.0,23.0,29,-99.99,,,-99.99,,2013-04-02 15:10:00,
2013-04-02 11:12:00,36.0,7.0,-100.00,SW,235,16.0,27.0,30,-99.99,,,-99.99,,2013-04-02 15:12:00,
2013-04-02 11:23:00,37.0,8.0,-100.00,WSW,245,13.0,24.0,30,-99.99,,,-99.99,,2013-04-02 15:23:00,
2013-04-02 11:33:00,37.0,8.0,-100.00,WSW,250,10.0,25.0,29,-99.99,,,-99.99,,2013-04-02 15:33:00,
2013-04-02 11:43:00,37.0,8.0,-100.00,WSW,255,13.0,32.0,29,-99.99,,,-99.99,,2013-04-02 15:43:00,
2013-04-02 11:55:00,36.0,7.0,-100.00,WSW,250,15.0,23.0,29,-99.99,,,-99.99,,2013-04-02 15:55:00,
2013-04-02 12:04:00,36.0,7.0,-100.00,WSW,250,15.0,23.0,29,-99.99,,,-99.99,,2013-04-02 16:04:00,
2013-04-02 12:30:00,38.0,8.0,-100.00,WSW,240,12.0,23.0,29,-99.99,,,-99.99,,2013-04-02 16:30:00,
2013-04-02 13:14:00,38.0,8.0,-100.00,WSW,240,12.0,23.0,29,-99.99,,,-99.99,,2013-04-02 17:14:00,
2013-04-02 13:25:00,38.0,8.0,-100.00,WSW,240,12.0,23.0,29,-99.99,,,-99.99,,2013-04-02 17:25:00,
2013-04-02 13:44:00,38.0,8.0,-100.00,West,260,14.0,31.0,28,-99.99,,,-99.99,,2013-04-02 17:44:00,
2013-04-02 13:57:00,38.0,9.0,-100.00,SW,235,20.0,37.0,30,-99.99,,,-99.99,,2013-04-02 17:57:00,
2013-04-02 14:04:00,37.0,10.0,-100.00,WSW,240,10.0,24.0,32,-99.99,,,-99.99,,2013-04-02 18:04:00,
2013-04-02 14:13:00,38.0,11.0,-100.00,WSW,250,15.0,24.0,31,-99.99,,,-99.99,,2013-04-02 18:13:00,
2013-04-02 14:23:00,38.0,12.0,-100.00,SW,235,10.0,23.0,34,-99.99,,,-99.99,,2013-04-02 18:23:00,
2013-04-02 14:35:00,39.0,10.0,-100.00,WSW,240,17.0,31.0,30,-99.99,,,-99.99,,2013-04-02 18:35:00,
2013-04-02 14:43:00,37.0,10.0,-100.00,WSW,245,12.0,29.0,33,-99.99,,,-99.99,,2013-04-02 18:43:00,
2013-04-02 14:54:00,36.0,11.0,-100.00,WSW,255,14.0,28.0,34,-99.99,,,-99.99,,2013-04-02 18:54:00,
2013-04-02 15:03:00,37.0,9.0,-100.00,WSW,240,18.0,28.0,31,-99.99,,,-99.99,,2013-04-02 19:03:00,
2013-04-02 15:13:00,37.0,11.0,-100.00,WSW,245,13.0,27.0,34,-99.99,,,-99.99,,2013-04-02 19:13:00,
2013-04-02 15:23:00,38.0,12.0,-100.00,WSW,240,7.0,23.0,34,-99.99,,,-99.99,,2013-04-02 19:23:00,
2013-04-02 15:34:00,39.0,13.0,-100.00,SW,235,15.0,29.0,34,-99.99,,,-99.99,,2013-04-02 19:34:00,
2013-04-02 15:45:00,38.0,11.0,-100.00,WSW,250,7.0,22.0,32,-99.99,,,-99.99,,2013-04-02 19:45:00,
2013-04-02 15:54:00,39.0,8.0,-100.00,West,275,12.0,27.0,28,-99.99,,,-99.99,,2013-04-02 19:54:00,
2013-04-02 16:04:00,39.0,7.0,-100.00,WSW,245,16.0,30.0,26,-99.99,,,-99.99,,2013-04-02 20:04:00,
2013-04-02 16:14:00,38.0,8.0,-100.00,West,265,15.0,24.0,28,-99.99,,,-99.99,,2013-04-02 20:14:00,
2013-04-02 16:23:00,38.0,8.0,-100.00,West,270,12.0,28.0,29,-99.99,,,-99.99,,2013-04-02 20:23:00,
2013-04-02 16:34:00,38.0,6.0,-100.00,West,270,12.0,31.0,26,-99.99,,,-99.99,,2013-04-02 20:34:00,
2013-04-02 16:44:00,40.0,10.0,-100.00,WSW,250,13.0,31.0,28,-99.99,,,-99.99,,2013-04-02 20:44:00,
2013-04-02 16:53:00,38.0,9.0,-100.00,WSW,250,9.0,24.0,29,-99.99,,,-99.99,,2013-04-02 20:53:00,
2013-04-02 17:05:00,40.0,9.0,-100.00,WSW,250,12.0,28.0,28,-99.99,,,-99.99,,2013-04-02 21:05:00,
2013-04-02 17:10:00,37.0,8.0,-100.00,West,260,14.0,31.0,29,-99.99,,,-99.99,,2013-04-02 21:10:00,
2013-04-02 17:13:00,38.0,8.0,-100.00,WSW,250,9.0,30.0,28,-99.99,,,-99.99,,2013-04-02 21:13:00,
2013-04-02 17:23:00,38.0,9.0,-100.00,WSW,240,18.0,32.0,29,-99.99,,,-99.99,,2013-04-02 21:23:00,
2013-04-02 17:35:00,38.0,9.0,-100.00,WSW,240,18.0,32.0,29,-99.99,,,-99.99,,2013-04-02 21:35:00,
2013-04-02 17:44:00,38.0,8.0,-100.00,West,260,12.0,24.0,29,-99.99,,,-99.99,,2013-04-02 21:44:00,
2013-04-02 17:56:00,37.0,8.0,-100.00,West,260,14.0,31.0,29,-99.99,,,-99.99,,2013-04-02 21:56:00,
2013-04-02 18:04:00,37.0,8.0,-100.00,West,260,14.0,31.0,29,-99.99,,,-99.99,,2013-04-02 22:04:00,
2013-04-02 19:13:00,36.0,9.0,-100.00,West,270,13.0,24.0,32,-99.99,,,-99.99,,2013-04-02 23:13:00,
2013-04-02 19:24:00,35.0,8.0,-100.00,WSW,240,9.0,27.0,32,-99.99,,,-99.99,,2013-04-02 23:24:00,
2013-04-02 19:35:00,35.0,8.0,-100.00,WSW,255,10.0,25.0,32,-99.99,,,-99.99,,2013-04-02 23:35:00,
2013-04-02 19:43:00,35.0,8.0,-100.00,West,260,16.0,27.0,32,-99.99,,,-99.99,,2013-04-02 23:43:00,
2013-04-02 19:53:00,35.0,8.0,-100.00,WSW,250,10.0,25.0,33,-99.99,,,-99.99,,2013-04-02 23:53:00,
2013-04-02 20:05:00,34.0,9.0,-100.00,SW,235,9.0,22.0,35,-99.99,,,-99.99,,2013-04-03 00:05:00,
2013-04-02 20:13:00,34.0,10.0,-100.00,West,260,10.0,20.0,36,-99.99,,,-99.99,,2013-04-03 00:13:00,
2013-04-02 20:25:00,33.0,10.0,-100.00,SSW,210,3.0,15.0,37,-99.99,,,-99.99,,2013-04-03 00:25:00,
2013-04-02 20:47:00,33.0,10.0,-100.00,SW,230,5.0,15.0,38,-99.99,,,-99.99,,2013-04-03 00:47:00,
2013-04-02 20:53:00,33.0,10.0,-100.00,WSW,240,8.0,20.0,38,-99.99,,,-99.99,,2013-04-03 00:53:00,
2013-04-02 21:04:00,33.0,10.0,-100.00,WSW,255,7.0,20.0,38,-99.99,,,-99.99,,2013-04-03 01:04:00,
2013-04-02 21:13:00,33.0,11.0,-100.00,WSW,245,8.0,16.0,39,-99.99,,,-99.99,,2013-04-03 01:13:00,
2013-04-02 21:23:00,33.0,11.0,-100.00,WSW,245,9.0,18.0,39,-99.99,,,-99.99,,2013-04-03 01:23:00,
2013-04-02 21:33:00,33.0,10.0,-100.00,WSW,245,10.0,23.0,37,-99.99,,,-99.99,,2013-04-03 01:33:00,
2013-04-02 21:42:00,33.0,10.0,-100.00,WSW,240,9.0,16.0,38,-99.99,,,-99.99,,2013-04-03 01:42:00,
2013-04-02 21:53:00,33.0,10.0,-100.00,WSW,240,8.0,17.0,38,-99.99,,,-99.99,,2013-04-03 01:53:00,
2013-04-02 22:04:00,33.0,10.0,-100.00,WSW,245,7.0,16.0,39,-99.99,,,-99.99,,2013-04-03 02:04:00,
2013-04-02 22:14:00,32.0,10.0,-100.00,SW,235,7.0,12.0,39,-99.99,,,-99.99,,2013-04-03 02:14:00,
2013-04-02 22:25:00,33.0,11.0,-100.00,West,260,8.0,16.0,39,-99.99,,,-99.99,,2013-04-03 02:25:00,
2013-04-02 22:34:00,32.0,10.0,-100.00,WSW,240,9.0,15.0,39,-99.99,,,-99.99,,2013-04-03 02:34:00,
2013-04-02 22:44:00,32.0,11.0,-100.00,WSW,255,10.0,21.0,40,-99.99,,,-99.99,,2013-04-03 02:44:00,
2013-04-02 22:53:00,33.0,11.0,-100.00,SW,230,6.0,18.0,40,-99.99,,,-99.99,,2013-04-03 02:53:00,
2013-04-02 23:06:00,32.0,11.0,-100.00,WSW,240,7.0,21.0,41,-99.99,,,-99.99,,2013-04-03 03:06:00,
2013-04-02 23:14:00,32.0,11.0,-100.00,WSW,250,8.0,23.0,41,-99.99,,,-99.99,,2013-04-03 03:14:00,
2013-04-02 23:23:00,32.0,11.0,-100.00,SW,235,7.0,16.0,41,-99.99,,,-99.99,,2013-04-03 03:23:00,
2013-04-02 23:30:00,32.0,11.0,-100.00,WSW,255,9.0,15.0,42,-99.99,,,-99.99,,2013-04-03 03:30:00,
2013-04-02 23:38:00,32.0,11.0,-100.00,WSW,250,8.0,20.0,40,-99.99,,,-99.99,,2013-04-03 03:38:00,
2013-04-02 23:44:00,32.0,11.0,-100.00,WSW,240,12.0,18.0,40,-99.99,,,-99.99,,2013-04-03 03:44:00,
2013-04-02 23:53:00,32.0,11.0,-100.00,WSW,255,7.0,15.0,41,-99.99,,,-99.99,,2013-04-03 03:53:00,